Time;durP1;ratioP1;P1;durP2;ratioP2;P2;SDS_P1;SDS_P2;PMS_P1;PMS_P2;Temp;Humidity;BMP_temperature;BMP_pressure;BME280_temperature;BME280_humidity;BME280_pressure;Samples;Min_cycle;Max_cycle;Signal;HPM_P1;HPM_P2
2020/12/12 00:00:00;;;;;;;11.40;7.30;;;6.20;81.70;;;;;;5053438;28;20029;-65
2020/12/12 00:02:30;;;;;;;11.47;6.90;;;6.20;81.50;;;;;;5053446;28;20470;-65
2020/12/12 00:04:59;;;;;;;9.53;6.40;;;6.20;81.40;;;;;;5053065;28;20025;-65
2020/12/12 00:07:25;;;;;;;11.00;7.20;;;6.20;81.40;;;;;;5053560;28;20025;-65
2020/12/12 00:09:51;;;;;;;12.87;8.60;;;6.30;81.50;;;;;;5053174;28;20068;-65
2020/12/12 00:12:17;;;;;;;13.47;8.17;;;6.30;81.40;;;;;;5053325;28;20025;-65
2020/12/12 00:14:43;;;;;;;12.70;7.70;;;6.30;81.60;;;;;;5053099;28;20090;-65
2020/12/12 00:17:09;;;;;;;17.67;11.07;;;6.30;81.50;;;;;;5052885;28;20048;-65
2020/12/12 00:19:34;;;;;;;18.47;11.77;;;6.30;81.40;;;;;;5053038;28;20099;-65
2020/12/12 00:22:00;;;;;;;16.37;11.40;;;6.20;81.40;;;;;;5053174;28;20399;-65
2020/12/12 00:24:26;;;;;;;16.00;10.30;;;6.20;81.60;;;;;;5053085;28;20096;-65
2020/12/12 00:26:55;;;;;;;20.93;13.43;;;6.20;81.70;;;;;;5052979;28;20386;-65
2020/12/12 00:29:21;;;;;;;23.07;15.97;;;6.20;81.80;;;;;;5053042;28;20047;-65
2020/12/12 00:31:56;;;;;;;30.13;19.07;;;6.20;81.70;;;;;;5053303;28;20100;-65
2020/12/12 00:34:23;;;;;;;29.70;20.10;;;6.10;82.10;;;;;;5053001;28;20025;-65
2020/12/12 00:36:49;;;;;;;33.00;21.60;;;6.10;82.60;;;;;;5053618;28;20096;-65
2020/12/12 00:39:16;;;;;;;35.70;24.10;;;6.00;82.90;;;;;;5057276;28;20484;-65
2020/12/12 00:41:42;;;;;;;35.50;24.03;;;6.00;82.90;;;;;;5056993;28;20592;-65
2020/12/12 00:44:08;;;;;;;36.53;22.47;;;6.00;83.20;;;;;;5056957;28;20021;-65
2020/12/12 00:46:34;;;;;;;35.17;23.30;;;6.00;83.30;;;;;;5056791;28;20035;-65
2020/12/12 00:49:00;;;;;;;34.40;23.43;;;5.90;82.90;;;;;;5056686;28;20039;-65
2020/12/12 00:51:26;;;;;;;36.60;22.87;;;5.90;82.70;;;;;;5056995;28;20020;-65
2020/12/12 00:53:52;;;;;;;33.47;23.67;;;5.90;82.90;;;;;;5056854;28;20561;-65
2020/12/12 00:56:18;;;;;;;36.80;23.90;;;5.90;83.10;;;;;;5056491;28;20096;-65
2020/12/12 00:58:44;;;;;;;31.80;23.03;;;5.90;83.20;;;;;;5056837;28;20100;-65
2020/12/12 01:01:10;;;;;;;34.07;23.23;;;5.90;83.30;;;;;;5056628;28;20381;-65
2020/12/12 01:03:37;;;;;;;31.47;21.90;;;5.80;83.60;;;;;;5056496;28;20021;-65
2020/12/12 01:06:04;;;;;;;30.50;21.17;;;5.80;83.90;;;;;;5056354;28;20025;-65
2020/12/12 01:08:31;;;;;;;31.73;20.67;;;5.90;84.00;;;;;;5056466;28;20044;-65
2020/12/12 01:10:56;;;;;;;27.83;19.43;;;5.90;84.00;;;;;;5056682;28;20092;-65
2020/12/12 01:13:22;;;;;;;30.50;17.93;;;5.90;84.30;;;;;;5056557;28;20086;-65
2020/12/12 01:15:48;;;;;;;24.20;18.63;;;5.90;84.60;;;;;;5056114;28;20449;-65
2020/12/12 01:18:14;;;;;;;23.10;15.83;;;5.90;84.50;;;;;;5056375;28;20069;-65
2020/12/12 01:20:40;;;;;;;26.40;16.83;;;5.90;84.80;;;;;;5056236;28;20108;-65
2020/12/12 01:23:06;;;;;;;22.33;15.00;;;5.90;84.90;;;;;;5056268;28;20405;-65
2020/12/12 01:25:32;;;;;;;21.43;16.07;;;6.00;84.90;;;;;;5055959;28;20075;-65
2020/12/12 01:27:58;;;;;;;20.50;15.37;;;6.00;84.90;;;;;;5055973;28;20055;-65
2020/12/12 01:30:24;;;;;;;19.83;13.33;;;6.00;84.90;;;;;;5056189;28;20539;-65
2020/12/12 01:32:49;;;;;;;21.30;14.77;;;6.00;85.40;;;;;;5056052;28;20469;-65
2020/12/12 01:35:15;;;;;;;21.07;14.43;;;6.00;84.60;;;;;;5055912;28;20036;-65
2020/12/12 01:37:43;;;;;;;19.93;13.47;;;6.00;84.40;;;;;;5055945;28;20021;-65
2020/12/12 01:40:12;;;;;;;16.37;11.73;;;6.00;84.40;;;;;;5055809;28;20055;-65
2020/12/12 01:42:38;;;;;;;14.93;10.60;;;6.00;84.40;;;;;;5055911;28;20029;-65
2020/12/12 01:45:05;;;;;;;14.90;10.40;;;6.00;84.40;;;;;;5055979;28;20021;-65
2020/12/12 01:47:32;;;;;;;14.60;10.57;;;6.00;84.10;;;;;;5055859;28;20024;-65
2020/12/12 01:49:57;;;;;;;17.23;11.00;;;6.00;84.10;;;;;;5054769;28;20037;-65
2020/12/12 01:52:24;;;;;;;12.83;9.17;;;6.10;84.10;;;;;;5055756;28;20381;-65
2020/12/12 01:54:51;;;;;;;14.90;9.70;;;6.10;84.10;;;;;;5055769;28;20025;-65
2020/12/12 01:57:22;;;;;;;13.97;9.30;;;6.10;84.00;;;;;;5055775;28;20021;-66
2020/12/12 01:59:49;;;;;;;10.93;8.30;;;6.10;84.00;;;;;;5052135;28;20397;-66
2020/12/12 02:02:16;;;;;;;10.90;7.70;;;6.10;83.90;;;;;;5052650;28;20043;-65
2020/12/12 02:05:03;;;;;;;9.77;7.07;;;6.10;83.80;;;;;;5053972;28;20029;-65
2020/12/12 02:07:29;;;;;;;11.63;6.60;;;6.20;83.60;;;;;;5055388;28;20099;-65
2020/12/12 02:09:55;;;;;;;8.00;6.47;;;6.10;83.20;;;;;;5055325;28;20490;-65
2020/12/12 02:12:21;;;;;;;10.77;6.60;;;6.20;83.00;;;;;;5055198;28;20472;-65
2020/12/12 02:14:47;;;;;;;8.57;6.47;;;6.20;82.80;;;;;;5054654;28;20052;-65
2020/12/12 02:17:13;;;;;;;10.93;6.30;;;6.20;82.60;;;;;;5055236;28;20021;-65
2020/12/12 02:19:38;;;;;;;12.67;6.23;;;6.20;82.30;;;;;;5054928;28;20041;-65
2020/12/12 02:22:06;;;;;;;8.47;6.47;;;6.20;82.20;;;;;;5054672;28;20431;-65
2020/12/12 02:24:33;;;;;;;11.27;6.97;;;6.20;82.00;;;;;;5054949;28;20082;-66
2020/12/12 02:27:06;;;;;;;14.93;7.43;;;6.20;81.90;;;;;;5055020;28;20025;-65
2020/12/12 02:29:42;;;;;;;11.90;7.93;;;6.20;81.80;;;;;;5054758;28;20029;-65
2020/12/12 02:32:08;;;;;;;10.57;7.77;;;6.20;81.80;;;;;;5055202;28;20104;-65
2020/12/12 02:34:34;;;;;;;13.33;8.07;;;6.20;82.00;;;;;;5054942;28;20040;-65
2020/12/12 02:37:00;;;;;;;11.43;7.97;;;6.10;82.20;;;;;;5054369;28;20021;-65
2020/12/12 02:39:26;;;;;;;12.57;8.57;;;6.20;82.40;;;;;;5054697;28;20155;-65
2020/12/12 02:41:51;;;;;;;11.47;8.53;;;6.10;82.50;;;;;;5054533;28;20025;-65
2020/12/12 02:44:17;;;;;;;10.30;7.60;;;6.10;82.60;;;;;;5054201;28;20025;-65
2020/12/12 02:46:43;;;;;;;11.47;8.03;;;6.10;82.70;;;;;;5054646;28;20017;-65
2020/12/12 02:49:08;;;;;;;14.53;8.70;;;6.10;82.80;;;;;;5054471;28;20047;-65
2020/12/12 02:51:42;;;;;;;10.50;7.83;;;6.10;82.80;;;;;;5054136;28;20024;-65
2020/12/12 02:54:08;;;;;;;11.50;8.27;;;6.10;82.70;;;;;;5054383;28;20029;-65
2020/12/12 02:56:34;;;;;;;12.53;9.10;;;6.10;83.00;;;;;;5054273;28;20421;-65
2020/12/12 02:59:00;;;;;;;12.07;8.30;;;6.10;83.00;;;;;;5054064;28;20473;-65
2020/12/12 03:01:26;;;;;;;16.63;9.03;;;6.10;83.80;;;;;;5054074;28;20079;-66
2020/12/12 03:03:52;;;;;;;14.77;9.47;;;6.10;83.30;;;;;;5054259;28;20489;-65
2020/12/12 03:06:17;;;;;;;13.20;9.63;;;6.10;83.40;;;;;;5054223;28;20385;-65
2020/12/12 03:08:43;;;;;;;12.10;8.80;;;6.10;83.60;;;;;;5054258;28;20045;-65
2020/12/12 03:11:09;;;;;;;14.23;9.70;;;6.00;83.50;;;;;;5054303;28;20033;-65
2020/12/12 03:13:35;;;;;;;16.13;11.20;;;6.00;83.50;;;;;;5054331;28;20021;-65
2020/12/12 03:16:00;;;;;;;19.60;11.83;;;6.00;83.50;;;;;;5054022;28;20088;-65
2020/12/12 03:18:26;;;;;;;21.97;14.43;;;6.10;83.70;;;;;;5054053;28;20162;-65
2020/12/12 03:20:52;;;;;;;23.10;15.43;;;6.00;83.60;;;;;;5054345;28;20166;-65
2020/12/12 03:23:18;;;;;;;23.57;16.33;;;6.00;83.60;;;;;;5053975;28;20021;-65
2020/12/12 03:25:43;;;;;;;21.90;16.10;;;6.00;84.00;;;;;;5053879;28;20104;-65
2020/12/12 03:28:09;;;;;;;21.33;17.17;;;6.00;84.20;;;;;;5054038;28;20028;-66
2020/12/12 03:30:36;;;;;;;25.10;16.37;;;5.90;84.60;;;;;;5054118;28;20053;-65
2020/12/12 03:33:03;;;;;;;21.07;15.73;;;5.90;84.60;;;;;;5053751;28;20032;-65
2020/12/12 03:35:29;;;;;;;20.50;15.33;;;5.90;84.60;;;;;;5053786;28;20082;-65
2020/12/12 03:37:55;;;;;;;21.13;14.90;;;6.00;84.70;;;;;;5053613;28;20017;-65
2020/12/12 03:40:23;;;;;;;20.77;14.53;;;5.90;84.70;;;;;;5053655;28;20477;-65
2020/12/12 03:42:53;;;;;;;23.33;15.57;;;5.90;84.70;;;;;;5053728;28;20029;-65
2020/12/12 03:45:22;;;;;;;19.97;13.93;;;5.90;84.70;;;;;;5053504;28;20100;-65
2020/12/12 03:47:49;;;;;;;19.83;14.63;;;5.90;84.60;;;;;;5053590;28;20486;-65
2020/12/12 03:50:15;;;;;;;20.50;14.37;;;5.90;84.60;;;;;;5053488;28;20032;-65
2020/12/12 03:52:41;;;;;;;20.87;14.13;;;5.90;84.60;;;;;;5053657;28;20075;-65
2020/12/12 03:55:07;;;;;;;18.43;13.87;;;6.00;84.60;;;;;;5052065;28;20033;-65
2020/12/12 03:57:33;;;;;;;17.97;13.13;;;5.90;84.40;;;;;;5053379;28;20032;-65
2020/12/12 03:59:59;;;;;;;18.83;13.57;;;5.90;84.50;;;;;;5053324;28;20025;-65
2020/12/12 04:02:24;;;;;;;19.57;13.20;;;5.90;84.60;;;;;;5053477;28;20037;-65
2020/12/12 04:04:50;;;;;;;19.03;12.93;;;5.90;84.60;;;;;;5053215;28;20028;-65
2020/12/12 04:07:16;;;;;;;19.00;12.20;;;5.90;84.60;;;;;;5052906;28;20029;-65
2020/12/12 04:09:42;;;;;;;16.23;11.33;;;5.90;84.70;;;;;;5053005;28;20044;-65
2020/12/12 04:12:07;;;;;;;16.33;11.67;;;5.90;84.50;;;;;;5052755;28;20025;-65
2020/12/12 04:14:33;;;;;;;15.50;11.53;;;5.90;84.10;;;;;;5053356;28;20056;-65
2020/12/12 04:16:59;;;;;;;15.17;10.90;;;5.90;84.20;;;;;;5053112;28;20025;-65
2020/12/12 04:19:24;;;;;;;17.40;11.63;;;5.90;84.20;;;;;;5053196;28;20056;-65
2020/12/12 04:21:50;;;;;;;19.13;12.63;;;5.90;84.10;;;;;;5053252;28;20518;-65
2020/12/12 04:24:16;;;;;;;17.73;13.53;;;5.90;84.80;;;;;;5053040;28;20041;-65
2020/12/12 04:26:42;;;;;;;16.77;13.03;;;5.80;84.20;;;;;;5052990;28;20025;-65
2020/12/12 04:29:07;;;;;;;17.17;13.10;;;5.80;84.20;;;;;;5052978;28;20041;-65
2020/12/12 04:31:33;;;;;;;16.90;12.10;;;5.80;84.30;;;;;;5053033;28;20029;-65
2020/12/12 04:34:00;;;;;;;15.83;11.40;;;5.80;84.20;;;;;;5053001;28;20053;-65
2020/12/12 04:36:25;;;;;;;17.80;10.97;;;5.70;84.20;;;;;;5053038;28;20025;-65
2020/12/12 04:38:51;;;;;;;16.13;11.53;;;5.70;84.40;;;;;;5052813;28;20442;-65
2020/12/12 04:41:18;;;;;;;17.80;11.43;;;5.70;84.50;;;;;;5052994;28;20064;-65
2020/12/12 04:43:44;;;;;;;16.23;12.47;;;5.70;84.50;;;;;;5053092;28;20139;-65
2020/12/12 04:46:12;;;;;;;17.17;11.90;;;5.70;84.50;;;;;;5052903;28;20453;-65
2020/12/12 04:48:39;;;;;;;15.00;11.70;;;5.70;84.50;;;;;;5053004;28;20192;-65
2020/12/12 04:51:06;;;;;;;16.90;11.97;;;5.60;84.50;;;;;;5052674;28;20087;-65
2020/12/12 04:53:32;;;;;;;17.13;11.20;;;5.60;84.60;;;;;;5052999;28;20032;-65
2020/12/12 04:56:02;;;;;;;12.60;9.90;;;5.60;84.70;;;;;;5052547;28;20112;-65
2020/12/12 04:58:28;;;;;;;13.43;9.30;;;5.60;84.50;;;;;;5053027;28;20086;-65
2020/12/12 05:00:56;;;;;;;11.77;8.23;;;5.60;84.70;;;;;;5052570;28;20025;-65
2020/12/12 05:03:25;;;;;;;10.73;7.53;;;5.70;84.70;;;;;;5052681;28;20032;-65
2020/12/12 05:05:51;;;;;;;10.57;7.60;;;5.70;84.60;;;;;;5052786;28;20409;-65
2020/12/12 05:08:17;;;;;;;12.23;8.20;;;5.70;84.70;;;;;;5052534;28;20103;-65
2020/12/12 05:10:45;;;;;;;12.67;7.70;;;5.70;84.80;;;;;;5052846;28;20121;-65
2020/12/12 05:13:28;;;;;;;12.73;8.60;;;5.80;84.70;;;;;;5052966;28;20025;-65
2020/12/12 05:15:55;;;;;;;13.90;8.68;;;5.80;84.60;;;;;;5052383;28;20033;-65
2020/12/12 05:18:21;;;;;;;13.60;9.83;;;5.80;84.40;;;;;;5052508;28;20524;-65
2020/12/12 05:20:47;;;;;;;14.23;10.43;;;5.80;84.30;;;;;;5052684;28;20029;-65
2020/12/12 05:23:15;;;;;;;13.17;9.30;;;5.80;84.10;;;;;;5052867;28;20021;-65
2020/12/12 05:25:42;;;;;;;15.50;9.90;;;5.80;84.10;;;;;;5056161;28;20029;-65
2020/12/12 05:28:09;;;;;;;14.47;10.13;;;5.80;84.10;;;;;;5055992;28;20059;-65
2020/12/12 05:30:40;;;;;;;13.93;10.70;;;5.80;84.00;;;;;;5056146;28;20401;-65
2020/12/12 05:33:07;;;;;;;14.10;10.53;;;5.80;84.00;;;;;;5056160;28;20020;-66
2020/12/12 05:35:33;;;;;;;14.93;10.47;;;5.80;84.00;;;;;;5056450;28;20025;-65
2020/12/12 05:38:04;;;;;;;14.10;10.73;;;5.80;84.00;;;;;;5056154;28;20070;-65
2020/12/12 05:40:31;;;;;;;14.23;10.33;;;5.80;84.00;;;;;;5055962;28;20021;-65
2020/12/12 05:43:00;;;;;;;13.83;9.40;;;5.80;84.10;;;;;;5055892;28;20017;-65
2020/12/12 05:45:26;;;;;;;11.20;8.37;;;5.80;84.10;;;;;;5055993;28;20113;-65
2020/12/12 05:47:52;;;;;;;10.00;6.90;;;5.80;84.30;;;;;;5055793;28;20088;-65
2020/12/12 05:50:19;;;;;;;11.37;6.70;;;5.80;84.20;;;;;;5056245;28;20033;-65
2020/12/12 05:52:46;;;;;;;8.67;6.67;;;5.80;84.10;;;;;;5055950;28;20078;-65
2020/12/12 05:55:11;;;;;;;8.83;6.30;;;5.90;83.80;;;;;;5055457;28;20033;-65
2020/12/12 05:57:38;;;;;;;8.40;5.90;;;5.90;83.50;;;;;;5055660;28;20032;-65
2020/12/12 06:00:07;;;;;;;12.63;7.80;;;5.90;83.30;;;;;;5055707;28;20496;-65
2020/12/12 06:02:38;;;;;;;16.10;10.30;;;6.00;83.10;;;;;;5055806;28;20021;-65
2020/12/12 06:05:05;;;;;;;15.27;12.00;;;5.90;82.90;;;;;;5055466;28;20029;-65
2020/12/12 06:07:33;;;;;;;16.50;12.43;;;5.90;83.00;;;;;;5055176;28;20025;-65
2020/12/12 06:10:06;;;;;;;17.30;12.47;;;5.90;83.00;;;;;;5055491;28;20040;-65
2020/12/12 06:12:33;;;;;;;18.23;13.65;;;5.90;83.10;;;;;;5055440;28;20423;-65
2020/12/12 06:14:59;;;;;;;16.47;12.23;;;5.90;83.40;;;;;;5055448;28;20398;-65
2020/12/12 06:17:44;;;;;;;17.57;12.40;;;5.90;83.60;;;;;;5054928;28;20493;-65
2020/12/12 06:20:13;;;;;;;17.07;12.43;;;5.80;83.70;;;;;;5055527;28;20536;-65
2020/12/12 06:22:40;;;;;;;17.90;12.80;;;5.80;83.90;;;;;;5055271;28;20021;-65
2020/12/12 06:25:08;;;;;;;17.00;12.43;;;5.80;84.10;;;;;;5055045;28;20100;-65
2020/12/12 06:27:44;;;;;;;21.57;13.33;;;5.80;84.30;;;;;;5055209;28;20100;-65
2020/12/12 06:30:13;;;;;;;19.63;13.23;;;5.80;84.50;;;;;;5055117;28;20078;-64
2020/12/12 06:32:40;;;;;;;20.40;14.30;;;5.80;84.60;;;;;;5054771;28;20099;-65
2020/12/12 06:35:06;;;;;;;19.33;13.73;;;5.80;84.80;;;;;;5054280;28;20485;-65
2020/12/12 06:37:37;;;;;;;17.63;12.80;;;5.80;84.90;;;;;;5054788;28;20060;-65
2020/12/12 06:40:16;;;;;;;18.23;13.23;;;5.80;85.00;;;;;;5054984;28;20413;-65
2020/12/12 06:42:45;;;;;;;18.67;12.87;;;5.80;85.00;;;;;;5054586;28;20025;-65
2020/12/12 06:45:13;;;;;;;20.03;13.87;;;5.80;85.10;;;;;;5054991;28;20392;-65
2020/12/12 06:47:48;;;;;;;30.73;14.57;;;5.80;85.20;;;;;;5055039;28;20021;-65
2020/12/12 06:50:17;;;;;;;23.07;13.63;;;5.70;85.20;;;;;;5054599;28;20032;-65
2020/12/12 06:52:43;;;;;;;25.73;13.60;;;5.80;85.40;;;;;;5054520;28;20035;-65
2020/12/12 06:55:13;;;;;;;19.07;12.73;;;5.80;85.30;;;;;;5054238;28;20048;-68
2020/12/12 06:57:43;;;;;;;23.30;12.63;;;5.80;85.30;;;;;;5054804;28;20543;-65
2020/12/12 07:00:30;;;;;;;18.53;11.97;;;5.80;85.20;;;;;;5054732;28;20423;-65
2020/12/12 07:03:01;;;;;;;17.73;12.53;;;5.80;85.10;;;;;;5054678;28;20025;-65
2020/12/12 07:05:29;;;;;;;20.50;12.47;;;5.90;85.00;;;;;;5054237;28;20032;-65
2020/12/12 07:08:03;;;;;;;20.40;13.87;;;5.90;85.00;;;;;;5053995;28;20474;-64
2020/12/12 07:10:33;;;;;;;27.97;15.80;;;5.90;84.90;;;;;;5054287;28;20032;-65
2020/12/12 07:13:00;;;;;;;20.30;14.37;;;5.90;85.00;;;;;;5054313;28;20032;-65
2020/12/12 07:15:32;;;;;;;20.27;15.57;;;5.90;85.00;;;;;;5054080;28;20036;-65
2020/12/12 07:18:05;;;;;;;22.45;14.80;;;5.90;85.00;;;;;;5053751;28;20116;-65
2020/12/12 07:20:36;;;;;;;23.17;16.40;;;5.90;85.30;;;;;;5054276;28;20017;-64
2020/12/12 07:23:04;;;;;;;22.17;16.13;;;5.90;85.30;;;;;;5053835;28;20079;-64
2020/12/12 07:25:34;;;;;;;26.90;17.27;;;5.90;85.30;;;;;;5054092;28;20116;-65
2020/12/12 07:28:01;;;;;;;29.93;20.63;;;5.90;85.40;;;;;;5053948;28;20024;-64
2020/12/12 07:30:27;;;;;;;27.90;18.77;;;6.00;85.40;;;;;;5053623;28;20405;-68
2020/12/12 07:32:53;;;;;;;28.37;18.93;;;6.00;85.50;;;;;;5053957;28;20025;-68
2020/12/12 07:35:19;;;;;;;25.70;19.10;;;6.00;85.70;;;;;;5053875;28;20032;-68
2020/12/12 07:37:45;;;;;;;33.00;20.83;;;6.00;85.80;;;;;;5053674;28;20025;-68
2020/12/12 07:40:11;;;;;;;27.90;19.63;;;6.00;85.80;;;;;;5053855;28;20029;-68
2020/12/12 07:42:37;;;;;;;27.30;20.33;;;6.00;85.90;;;;;;5051891;28;20596;-68
2020/12/12 07:47:36;;;;;;;36.40;22.53;;;6.00;86.20;;;;;;5050133;28;20044;-66
2020/12/12 07:50:05;;;;;;;30.80;21.27;;;6.00;86.40;;;;;;5052834;28;20037;-67
2020/12/12 07:52:31;;;;;;;34.90;20.43;;;6.00;86.20;;;;;;5053406;28;20413;-67
2020/12/12 07:55:08;;;;;;;27.33;20.13;;;6.00;86.20;;;;;;5053405;28;20025;-67
2020/12/12 07:57:41;;;;;;;26.00;17.87;;;6.10;86.40;;;;;;5053240;28;20037;-67
2020/12/12 08:00:09;;;;;;;25.00;17.48;;;6.10;86.40;;;;;;5053451;28;20023;-67
2020/12/12 08:02:34;;;;;;;30.60;19.63;;;6.10;86.40;;;;;;5053238;28;20025;-68
2020/12/12 08:05:01;;;;;;;28.80;19.37;;;6.10;86.50;;;;;;5052754;28;20100;-68
2020/12/12 08:07:32;;;;;;;29.27;18.90;;;6.10;86.40;;;;;;5053341;28;20370;-68
2020/12/12 08:09:59;;;;;;;21.23;15.53;;;6.10;86.60;;;;;;5053312;28;20033;-68
2020/12/12 08:12:32;;;;;;;21.87;15.10;;;6.20;86.60;;;;;;5053111;28;20078;-66
2020/12/12 08:15:45;;;;;;;24.63;16.70;;;6.20;86.70;;;;;;5053092;28;20503;-66
2020/12/12 08:18:12;;;;;;;22.77;15.50;;;6.30;86.70;;;;;;5052570;28;20067;-66
2020/12/12 08:20:38;;;;;;;22.53;15.63;;;6.30;86.80;;;;;;5052946;28;20025;-66
2020/12/12 08:23:05;;;;;;;21.03;15.03;;;6.30;86.70;;;;;;5053028;28;20021;-66
2020/12/12 08:25:31;;;;;;;22.53;15.03;;;6.30;86.60;;;;;;5048986;28;20048;-67
2020/12/12 08:27:57;;;;;;;21.90;15.77;;;6.30;86.50;;;;;;5050159;28;20131;-67
2020/12/12 08:30:25;;;;;;;21.33;15.50;;;6.40;86.40;;;;;;5050219;28;20123;-67
2020/12/12 08:32:51;;;;;;;23.30;15.30;;;6.40;86.20;;;;;;5052832;28;20033;-67
2020/12/12 08:35:29;;;;;;;19.70;14.77;;;6.40;86.00;;;;;;5052922;28;20028;-66
2020/12/12 08:37:56;;;;;;;29.27;14.53;;;6.50;85.90;;;;;;5052876;28;20550;-66
2020/12/12 08:40:27;;;;;;;19.87;13.33;;;6.50;85.50;;;;;;5052923;28;20045;-66
2020/12/12 08:43:14;;;;;;;19.10;12.60;;;6.50;85.20;;;;;;5052822;28;20040;-65
2020/12/12 08:45:55;;;;;;;18.33;13.03;;;6.50;85.10;;;;;;5052620;28;20060;-67
2020/12/12 08:48:20;;;;;;;15.43;10.73;;;6.60;84.90;;;;;;5052588;28;20070;-66
2020/12/12 08:50:57;;;;;;;16.73;11.70;;;6.60;84.50;;;;;;5052201;28;20032;-65
2020/12/12 08:53:40;;;;;;;15.67;10.83;;;6.70;84.20;;;;;;5050080;28;20021;-66
2020/12/12 08:56:06;;;;;;;;;;;6.70;83.90;;;;;;5041139;28;20030;-65
2020/12/12 08:58:39;;;;;;;12.00;9.03;;;6.80;83.60;;;;;;5043232;28;19916;-67
2020/12/12 09:01:24;;;;;;;9.45;7.18;;;6.80;83.30;;;;;;5050406;28;20013;-66
2020/12/12 09:03:56;;;;;;;7.63;5.73;;;6.90;83.20;;;;;;5054664;28;20031;-66
2020/12/12 09:06:22;;;;;;;9.32;6.80;;;6.90;82.80;;;;;;5055500;28;20032;-66
2020/12/12 09:09:05;;;;;;;9.43;6.03;;;7.00;82.60;;;;;;5055670;28;20116;-66
2020/12/12 09:11:31;;;;;;;9.25;6.22;;;7.00;82.40;;;;;;5056045;28;20036;-66
2020/12/12 09:13:58;;;;;;;8.10;5.53;;;7.10;82.10;;;;;;5055635;28;20033;-66
2020/12/12 09:16:25;;;;;;;10.60;5.40;;;7.10;81.80;;;;;;5055896;28;20017;-65
2020/12/12 09:18:51;;;;;;;7.97;5.10;;;7.10;81.40;;;;;;5055448;28;20506;-65
2020/12/12 09:21:18;;;;;;;8.33;5.60;;;7.20;81.20;;;;;;5046381;28;20025;-65
2020/12/12 09:23:43;;;;;;;6.50;4.93;;;7.20;80.80;;;;;;5043216;28;20501;-65
2020/12/12 09:26:09;;;;;;;10.07;4.87;;;7.30;80.70;;;;;;5041525;28;20033;-66
2020/12/12 09:28:35;;;;;;;5.60;4.13;;;7.30;80.40;;;;;;5043287;28;20021;-65
2020/12/12 09:31:01;;;;;;;11.57;8.97;;;7.40;80.40;;;;;;5044387;28;20129;-65
2020/12/12 09:33:27;;;;;;;19.73;12.93;;;7.40;80.40;;;;;;5041894;28;20013;-66
2020/12/12 09:35:53;;;;;;;20.10;13.33;;;7.40;81.50;;;;;;5035388;28;20028;-65
2020/12/12 09:38:19;;;;;;;26.27;15.93;;;7.50;82.10;;;;;;5035356;28;20367;-65
2020/12/12 09:40:49;;;;;;;19.67;14.77;;;7.40;84.40;;;;;;5035415;28;20021;-65
2020/12/12 09:43:15;;;;;;;22.10;15.57;;;7.30;85.40;;;;;;5035245;28;20029;-65
2020/12/12 09:45:45;;;;;;;17.60;13.37;;;7.30;85.50;;;;;;5034916;28;20021;-65
2020/12/12 09:48:11;;;;;;;20.90;14.63;;;7.30;85.30;;;;;;5035337;28;20033;-65
2020/12/12 09:50:37;;;;;;;19.27;14.33;;;7.30;85.70;;;;;;5035481;28;20033;-65
2020/12/12 09:53:04;;;;;;;22.27;14.93;;;7.30;85.40;;;;;;5034827;28;20013;-65
2020/12/12 09:55:32;;;;;;;23.90;14.47;;;7.30;84.90;;;;;;5034767;28;20033;-65
2020/12/12 09:57:58;;;;;;;20.50;14.30;;;7.40;84.40;;;;;;5035104;28;20022;-65
2020/12/12 10:00:24;;;;;;;19.20;14.10;;;7.40;84.10;;;;;;5034808;28;20029;-66
2020/12/12 10:02:50;;;;;;;21.93;13.87;;;7.40;83.90;;;;;;5034895;28;20022;-66
2020/12/12 10:05:16;;;;;;;25.17;14.03;;;7.50;84.40;;;;;;5034993;28;20017;-65
2020/12/12 10:07:42;;;;;;;20.50;14.43;;;7.50;84.40;;;;;;5034334;28;20026;-65
2020/12/12 10:10:08;;;;;;;19.90;13.70;;;7.50;83.90;;;;;;5034018;28;20037;-65
2020/12/12 10:12:34;;;;;;;17.60;13.37;;;7.60;83.70;;;;;;5034541;28;20025;-65
2020/12/12 10:14:59;;;;;;;21.13;14.33;;;7.60;83.40;;;;;;5035207;28;20032;-65
2020/12/12 10:17:25;;;;;;;17.37;12.07;;;7.60;83.80;;;;;;5035011;28;20100;-65
2020/12/12 10:19:51;;;;;;;22.53;13.93;;;7.70;83.80;;;;;;5034962;28;20387;-65
2020/12/12 10:22:17;;;;;;;24.17;14.23;;;7.80;83.70;;;;;;5035033;28;20359;-65
2020/12/12 10:24:43;;;;;;;15.97;10.53;;;7.80;83.40;;;;;;5035078;28;20028;-65
2020/12/12 10:27:08;;;;;;;9.53;6.90;;;7.80;83.00;;;;;;5035091;28;20017;-65
2020/12/12 10:29:34;;;;;;;11.60;4.93;;;7.80;82.50;;;;;;5034844;28;20107;-65
2020/12/12 10:32:00;;;;;;;5.80;4.63;;;7.90;81.70;;;;;;5034276;28;20036;-65
2020/12/12 10:34:26;;;;;;;5.57;4.20;;;7.90;80.70;;;;;;5034650;28;20371;-65
2020/12/12 10:36:52;;;;;;;8.17;4.50;;;7.90;79.90;;;;;;5035005;28;20147;-65
2020/12/12 10:39:26;;;;;;;6.17;4.70;;;8.00;79.40;;;;;;5034860;28;20032;-65
2020/12/12 10:41:52;;;;;;;7.53;4.53;;;8.00;79.00;;;;;;5034714;28;20338;-65
2020/12/12 10:44:18;;;;;;;6.37;4.13;;;8.10;78.60;;;;;;5034828;28;20039;-65
2020/12/12 10:46:43;;;;;;;10.03;4.90;;;8.10;78.10;;;;;;5040419;28;20428;-66
2020/12/12 10:49:09;;;;;;;6.77;4.97;;;8.10;78.00;;;;;;5050262;28;20095;-65
2020/12/12 10:51:37;;;;;;;7.43;4.90;;;8.20;77.80;;;;;;5050580;28;20485;-65
2020/12/12 10:54:03;;;;;;;6.27;4.63;;;8.20;77.70;;;;;;5043299;28;20016;-65
2020/12/12 10:56:28;;;;;;;6.50;5.07;;;8.20;77.70;;;;;;5044777;28;20025;-66
2020/12/12 10:58:54;;;;;;;7.30;5.43;;;8.20;77.50;;;;;;5042706;28;20041;-64
2020/12/12 11:01:20;;;;;;;11.70;9.00;;;8.30;77.50;;;;;;5044432;28;20029;-65
2020/12/12 11:03:45;;;;;;;8.70;6.53;;;8.30;77.40;;;;;;5038642;28;20034;-65
2020/12/12 11:06:11;;;;;;;7.53;5.87;;;8.30;77.20;;;;;;5032602;28;20391;-64
2020/12/12 11:08:37;;;;;;;7.83;5.57;;;8.40;77.10;;;;;;5032721;28;20029;-64
2020/12/12 11:11:03;;;;;;;7.63;5.37;;;8.40;76.80;;;;;;5034032;28;20029;-65
2020/12/12 11:13:28;;;;;;;7.97;5.83;;;8.40;76.80;;;;;;5033918;28;20481;-65
2020/12/12 11:15:54;;;;;;;7.37;5.67;;;8.40;76.80;;;;;;5033700;28;20025;-64
2020/12/12 11:18:20;;;;;;;8.60;5.57;;;8.40;76.70;;;;;;5033697;28;20056;-65
2020/12/12 11:20:47;;;;;;;7.93;5.50;;;8.50;76.70;;;;;;5033777;28;20033;-64
2020/12/12 11:23:13;;;;;;;6.87;5.30;;;8.50;76.70;;;;;;5033648;28;20029;-65
2020/12/12 11:25:39;;;;;;;8.53;5.40;;;8.50;76.70;;;;;;5034055;28;20029;-64
2020/12/12 11:28:05;;;;;;;7.30;5.27;;;8.60;76.40;;;;;;5033896;28;20063;-64
2020/12/12 11:30:31;;;;;;;9.93;5.57;;;8.60;76.30;;;;;;5033653;28;20029;-64
2020/12/12 11:32:57;;;;;;;7.67;5.50;;;8.60;76.30;;;;;;5033783;28;20029;-64
2020/12/12 11:35:37;;;;;;;7.03;5.37;;;8.70;76.40;;;;;;5033706;28;20029;-64
2020/12/12 11:38:24;;;;;;;6.03;4.80;;;8.70;76.20;;;;;;5033756;28;20100;-64
2020/12/12 11:48:25;;;;;;;6.17;4.50;;;8.80;75.90;;;;;;5032054;28;20040;-65
2020/12/12 11:50:50;;;;;;;7.60;5.00;;;8.80;75.70;;;;;;5033317;28;20397;-64
2020/12/12 11:53:16;;;;;;;5.90;4.63;;;8.80;75.20;;;;;;5033085;28;20017;-64
2020/12/12 11:55:42;;;;;;;9.37;4.90;;;8.80;75.00;;;;;;5033250;28;20359;-64
2020/12/12 11:58:07;;;;;;;6.23;4.70;;;8.90;75.00;;;;;;5033242;28;20104;-64
2020/12/12 12:00:33;;;;;;;8.03;5.10;;;8.90;75.10;;;;;;5031787;28;20033;-65
2020/12/12 12:02:59;;;;;;;10.00;4.37;;;9.00;75.30;;;;;;5031845;28;20026;-64
2020/12/12 12:05:25;;;;;;;10.37;5.10;;;9.00;75.10;;;;;;5031829;28;20017;-65
2020/12/12 12:07:51;;;;;;;9.07;5.23;;;9.00;74.70;;;;;;5031378;28;20029;-65
2020/12/12 12:12:42;;;;;;;8.23;5.20;;;9.00;74.60;;;;;;5031925;28;20163;-65
2020/12/12 12:15:08;;;;;;;6.93;4.83;;;9.10;74.50;;;;;;5031515;28;20120;-65
2020/12/12 12:17:34;;;;;;;9.93;5.10;;;9.10;74.50;;;;;;5032494;28;20025;-65
2020/12/12 12:20:00;;;;;;;7.47;5.50;;;9.10;74.40;;;;;;5032765;28;20045;-65
2020/12/12 12:22:26;;;;;;;6.47;5.23;;;9.10;74.40;;;;;;5032784;28;20029;-64
2020/12/12 12:24:51;;;;;;;7.90;5.00;;;9.20;74.60;;;;;;5032454;28;20025;-65
2020/12/12 12:27:17;;;;;;;10.73;5.10;;;9.10;74.70;;;;;;5032674;28;20359;-66
2020/12/12 12:29:43;;;;;;;8.13;5.10;;;9.20;74.80;;;;;;5032734;28;20033;-65
2020/12/12 12:32:08;;;;;;;9.33;5.33;;;9.10;74.80;;;;;;5032724;28;20030;-65
2020/12/12 12:34:34;;;;;;;7.00;5.60;;;9.20;75.00;;;;;;5038666;28;20025;-65
2020/12/12 12:37:00;;;;;;;7.83;5.90;;;9.20;75.10;;;;;;5039315;28;20024;-65
2020/12/12 12:39:25;;;;;;;6.83;5.63;;;9.20;75.10;;;;;;5039186;28;20029;-65
2020/12/12 12:41:51;;;;;;;7.13;5.73;;;9.20;75.00;;;;;;5039052;28;20488;-66
2020/12/12 12:44:17;;;;;;;6.30;5.33;;;9.20;75.40;;;;;;5039523;28;20026;-65
2020/12/12 12:46:45;;;;;;;9.57;5.90;;;9.20;74.50;;;;;;5039171;28;20096;-66
2020/12/12 12:49:11;;;;;;;69.13;38.00;;;9.20;74.40;;;;;;5038896;28;20034;-66
2020/12/12 12:51:38;;;;;;;32.43;18.87;;;9.20;74.60;;;;;;5039426;28;20036;-64
2020/12/12 12:54:04;;;;;;;22.57;13.80;;;9.30;74.30;;;;;;5039354;28;20029;-68
2020/12/12 12:56:30;;;;;;;21.17;13.53;;;9.30;74.30;;;;;;5039276;28;20057;-65